• Join FlightAware (Why Join?)
  • Login
  • US Flag 
08:21AM EST


 

Airport Tracker/Info


-or-


 

Live Flight TrackerFlight Track Log ✈ N400PU ✈ 05-Jun-2013 ✈ KOMA - KMCO

Flight Track Log - Related Links

Times and Time Zones

All times are in EDT time to prevent confusion due to time zone crossing. See the N400PU flight status page for this flight to view local times or setup timezone preferences in your user account.

Time Position Orientation Groundspeed Altitude Reporting Facility
EDT Latitude Longitude Course Direction KTS MPH feet Rate Location/Type
02:46PM 41.3128 -95.9064 351° North 148 170 1,600  Level Minneapolis Center
02:47PM 41.3636 -95.9172 351° North 205 236 4,300 2,460 Climbing Minneapolis Center
02:48PM 41.3797 -95.9092 21° North 205 236 5,100 3,000 Climbing Minneapolis Center
02:48PM 41.4228 -95.8936 15° North 256 295 7,300 3,240 Climbing Minneapolis Center
02:49PM 41.4286 -95.8436 81° East 245 282 8,500 2,700 Climbing Minneapolis Center
02:49PM 41.4161 -95.7944 109° East 274 315 10,100 2,460 Climbing Minneapolis Center
02:50PM 41.4036 -95.7489 110° East 262 302 11,100 2,040 Climbing Minneapolis Center
02:51PM 41.3733 -95.6508 112° Southeast 273 314 13,200 1,980 Climbing Minneapolis Center
02:52PM 41.3375 -95.5431 114° Southeast 305 351 15,300 2,040 Climbing Minneapolis Center
02:53PM 41.2900 -95.4464 123° Southeast 312 359 17,500 1,860 Climbing Minneapolis Center
02:54PM 41.2317 -95.3542 130° Southeast 322 371 19,200 1,620 Climbing Minneapolis Center
02:55PM 41.1714 -95.2561 129° Southeast 338 389 20,900 1,980 Climbing Minneapolis Center
02:56PM 41.0958 -95.1364 130° Southeast 349 402 23,300 1,980 Climbing Minneapolis Center
02:57PM 41.0328 -95.0361 130° Southeast 352 405 25,000 1,620 Climbing Minneapolis Center
02:58PM 40.9683 -94.9336 130° Southeast 359 413 26,700 1,500 Climbing Minneapolis Center
02:59PM 40.9033 -94.8306 130° Southeast 363 418 28,200 1,500 Climbing Minneapolis Center
03:00PM 40.8258 -94.7094 130° Southeast 361 415 29,900 1,320 Climbing Minneapolis Center
03:01PM 40.7625 -94.6114 130° Southeast 353 406 31,100 960 Climbing Minneapolis Center
03:02PM 40.7097 -94.5272 130° Southeast 349 402 32,000 780 Climbing Minneapolis Center
03:03PM 40.6350 -94.4072 129° Southeast 354 407 32,800 660 Climbing Minneapolis Center
03:04PM 40.5678 -94.3050 131° Southeast 366 421 33,400 720 Climbing Minneapolis Center
03:05PM 40.5000 -94.2003 130° Southeast 376 433 34,300 720 Climbing Minneapolis Center
03:06PM 40.4325 -94.0961 130° Southeast 378 435 35,000 660 Climbing Minneapolis Center
03:07PM 40.3500 -93.9692 130° Southeast 382 440 35,700 600 Climbing Minneapolis Center
03:08PM 40.3081 -93.9061 131° Southeast 381 438 36,100 600 Climbing Kansas City Center
03:09PM 40.2253 -93.7814 131° Southeast 381 438 36,800 420 Climbing Kansas City Center
03:10PM 40.1572 -93.6767 130° Southeast 382 440 37,000 60 Climbing Kansas City Center
03:11PM 40.0858 -93.5686 131° Southeast 390 449 37,000  Level Kansas City Center
03:12PM 40.0111 -93.4558 131° Southeast 406 467 37,000 60 Level Kansas City Center
03:13PM 39.9369 -93.3433 131° Southeast 413 475 37,200 540 Climbing Kansas City Center
03:14PM 39.8472 -93.2094 131° Southeast 414 476 38,200 840 Climbing Kansas City Center
03:15PM 39.7753 -93.1008 131° Southeast 406 467 39,000 600 Climbing Kansas City Center
03:17PM 39.7042 -92.9942 131° Southeast 400 460 39,500 420 Climbing Kansas City Center
03:18PM 39.6308 -92.8861 131° Southeast 402 463 39,900 420 Climbing Kansas City Center
03:19PM 39.5431 -92.7569 131° Southeast 403 464 40,400 360 Climbing Kansas City Center
03:20PM 39.4683 -92.6478 132° Southeast 407 468 40,700 240 Climbing Kansas City Center
03:21PM 39.3933 -92.5364 131° Southeast 411 473 40,900 120 Climbing Kansas City Center
03:22PM 39.3161 -92.4247 132° Southeast 416 479 41,000  Climbing Kansas City Center
03:23PM 39.2372 -92.3092 131° Southeast 421 484 41,000  Level Kansas City Center
03:24PM 39.1389 -92.1667 132° Southeast 434 499 41,000  Level Kansas City Center
03:25PM 39.0539 -92.0453 132° Southeast 449 517 41,000  Level Kansas City Center
03:26PM 38.9678 -91.9294 134° Southeast 448 516 41,000  Level Kansas City Center
03:27PM 38.8789 -91.8108 134° Southeast 455 524 41,000  Level Kansas City Center
03:28PM 38.7839 -91.6847 134° Southeast 458 527 41,000  Level Kansas City Center
03:29PM 38.6997 -91.5728 134° Southeast 461 531 41,000  Level Kansas City Center
03:30PM 38.6128 -91.4561 134° Southeast 455 524 41,000  Level Kansas City Center
03:31PM 38.5211 -91.3353 134° Southeast 455 524 41,000  Level Kansas City Center
03:32PM 38.4336 -91.2203 134° Southeast 454 522 41,000  Level Kansas City Center
03:33PM 38.3458 -91.1078 135° Southeast 452 520 41,000  Level Kansas City Center
03:34PM 38.2417 -90.9694 134° Southeast 453 521 41,000  Level Kansas City Center
03:35PM 38.1542 -90.8556 134° Southeast 454 522 41,000  Level Kansas City Center
03:36PM 38.0656 -90.7433 135° Southeast 454 522 41,000  Level Kansas City Center
03:37PM 37.9778 -90.6278 134° Southeast 457 526 41,000  Level Kansas City Center
03:38PM 37.8914 -90.5161 134° Southeast 451 519 41,000  Level Kansas City Center
03:39PM 37.7886 -90.3856 135° Southeast 442 509 41,000  Level Kansas City Center
03:40PM 37.7069 -90.2800 134° Southeast 428 493 41,000  Level Kansas City Center
03:41PM 37.6175 -90.1850 140° Southeast 424 488 41,000  Level Kansas City Center
03:42PM 37.5208 -90.1042 146° Southeast 421 484 41,000  Level Kansas City Center
03:43PM 37.4128 -90.0100 145° Southeast 424 488 41,000  Level Kansas City Center
03:44PM 37.3153 -89.9222 144° Southeast 428 493 41,000  Level Kansas City Center
03:45PM 37.2167 -89.8350 145° Southeast 431 496 41,000  Level Kansas City Center
03:46PM 37.1194 -89.7492 145° Southeast 428 493 41,000  Level Kansas City Center
03:47PM 37.0217 -89.6658 146° Southeast 424 488 41,000  Level Memphis Center
03:48PM 36.9272 -89.5808 144° Southeast 424 488 41,000  Level Memphis Center
03:49PM 36.8308 -89.4989 146° Southeast 424 488 41,000  Level Memphis Center
03:50PM 36.7367 -89.4172 145° Southeast 424 488 41,000  Level Memphis Center
03:51PM 36.6422 -89.3328 144° Southeast 424 488 41,000  Level Memphis Center
03:52PM 36.5517 -89.2461 142° Southeast 419 482 41,000  Level Memphis Center
03:53PM 36.4489 -89.1625 147° Southeast 426 490 41,000  Level Memphis Center
03:54PM 36.3394 -89.0689 145° Southeast 431 496 41,000  Level Memphis Center
03:55PM 36.2447 -88.9931 147° Southeast 425 489 41,000  Level Memphis Center
03:56PM 36.1503 -88.9150 146° Southeast 418 481 41,000  Level Memphis Center
03:57PM 36.0553 -88.8344 146° Southeast 418 481 41,000  Level Memphis Center
03:58PM 35.9628 -88.7567 146° Southeast 418 481 41,000  Level Memphis Center
03:59PM 35.8678 -88.6792 147° Southeast 418 481 41,000  Level Memphis Center
04:00PM 35.7750 -88.5992 145° Southeast 418 481 41,000  Level Memphis Center
04:01PM 35.6861 -88.5244 146° Southeast 411 473 41,000  Level Memphis Center
04:02PM 35.5953 -88.4472 145° Southeast 406 467 41,000  Level Memphis Center
04:03PM 35.5044 -88.3728 146° Southeast 406 467 41,000  Level Memphis Center
04:04PM 35.4136 -88.2986 146° Southeast 401 461 41,000  Level Memphis Center
04:05PM 35.3333 -88.2369 148° Southeast 396 456 41,000  Level Memphis Center
04:06PM 35.2403 -88.1631 147° Southeast 396 456 41,000  Level Memphis Center
04:07PM 35.1492 -88.0842 145° Southeast 396 456 41,000  Level Memphis Center
04:08PM 35.0472 -87.9906 143° Southeast 409 471 41,000  Level Memphis Center
04:09PM 34.9681 -87.8839 132° Southeast 409 471 41,000  Level Memphis Center
04:10PM 34.9014 -87.7922 132° Southeast 414 476 41,000  Level Memphis Center
04:11PM 34.8303 -87.6778 127° Southeast 420 483 41,000  Level Memphis Center
04:14PM 34.6514 -87.4197 130° Southeast 436 502 41,000  Level Atlanta Center
04:15PM 34.5833 -87.3186 129° Southeast 436 502 41,000  Level Atlanta Center
04:16PM 34.5006 -87.2072 132° Southeast 436 502 41,000  Level Atlanta Center
04:17PM 34.4242 -87.0983 130° Southeast 430 495 41,000  Level Atlanta Center
04:18PM 34.3456 -86.9875 131° Southeast 430 495 41,000  Level Atlanta Center
04:19PM 34.2686 -86.8817 131° Southeast 425 489 41,000  Level Atlanta Center
04:20PM 34.1917 -86.7786 132° Southeast 418 481 41,000  Level Atlanta Center
04:21PM 34.1167 -86.6708 130° Southeast 418 481 41,000  Level Atlanta Center
04:22PM 34.0397 -86.5606 130° Southeast 423 487 41,000  Level Atlanta Center
04:23PM 33.9539 -86.4706 139° Southeast 418 481 41,100  Climbing Atlanta Center
04:24PM 33.8681 -86.3806 139° Southeast 418 481 41,000 -60 Descending Atlanta Center
04:25PM 33.7903 -86.3008 140° Southeast 396 456 41,000  Level Atlanta Center
04:26PM 33.7061 -86.2164 140° Southeast 391 450 41,000  Level Atlanta Center
04:27PM 33.6242 -86.1269 138° Southeast 391 450 41,000  Level Atlanta Center
04:28PM 33.5361 -86.0325 138° Southeast 396 456 41,000  Level Atlanta Center
04:29PM 33.4478 -85.9433 140° Southeast 405 466 41,000  Level Atlanta Center
04:30PM 33.3614 -85.8519 139° Southeast 410 472 41,000  Level Atlanta Center
04:31PM 33.2731 -85.7606 139° Southeast 410 472 41,000  Level Atlanta Center
04:32PM 33.1825 -85.6669 139° Southeast 423 487 41,000  Level Atlanta Center
04:33PM 33.0917 -85.5736 139° Southeast 429 494 41,000  Level Atlanta Center
04:34PM 32.9969 -85.4778 140° Southeast 429 494 41,000  Level Atlanta Center
04:35PM 32.9267 -85.4025 138° Southeast 429 494 41,000  Level Atlanta Center
04:36PM 32.8256 -85.3019 140° Southeast 429 494 41,000  Level Atlanta Center
04:37PM 32.7347 -85.2094 139° Southeast 429 494 41,000  Level Atlanta Center
04:38PM 32.6375 -85.1144 141° Southeast 434 499 41,000  Level Atlanta Center
04:39PM 32.5506 -85.0222 138° Southeast 427 491 41,000  Level Atlanta Center
04:40PM 32.4614 -84.9325 140° Southeast 427 491 41,000  Level Atlanta Center
04:41PM 32.3681 -84.8431 141° Southeast 427 491 41,000  Level Atlanta Center
04:42PM 32.2728 -84.7489 140° Southeast 421 484 41,000  Level Atlanta Center
04:43PM 32.1833 -84.6597 140° Southeast 421 484 41,000  Level Atlanta Center
04:44PM 32.0919 -84.5708 141° Southeast 426 490 41,000  Level Atlanta Center
04:45PM 32.0025 -84.4772 138° Southeast 426 490 41,000  Level Atlanta Center
04:45PM 31.9525 -84.4303 141° Southeast 436 502 41,000  Level Jacksonville Center
04:46PM 31.8722 -84.3506 140° Southeast 424 488 41,000  Level Jacksonville Center
04:47PM 31.7814 -84.2611 140° Southeast 424 488 41,000  Level Jacksonville Center
04:48PM 31.6819 -84.1622 140° Southeast 424 488 41,000  Level Jacksonville Center
04:49PM 31.5911 -84.0756 141° Southeast 424 488 41,000  Level Jacksonville Center
04:50PM 31.5000 -83.9842 139° Southeast 424 488 41,000  Level Jacksonville Center
04:51PM 31.4089 -83.8956 140° Southeast 424 488 41,000  Level Jacksonville Center
04:52PM 31.3197 -83.8069 140° Southeast 429 494 41,000  Level Jacksonville Center
04:53PM 31.2306 -83.7186 140° Southeast 424 488 41,000 -180 Level Jacksonville Center
04:54PM 31.1414 -83.6306 140° Southeast 424 488 40,700 -1,320 Descending Jacksonville Center
04:55PM 31.0500 -83.5450 141° Southeast 424 488 38,400 -2,280 Descending Jacksonville Center
04:56PM 30.9647 -83.4572 139° Southeast 424 488 36,200 -2,160 Descending Jacksonville Center
04:57PM 30.8753 -83.3717 141° Southeast 424 488 34,100 -2,280 Descending Jacksonville Center
04:58PM 30.7858 -83.2844 140° Southeast 424 488 31,700 -2,400 Descending Jacksonville Center
04:59PM 30.6964 -83.1897 138° Southeast 429 494 29,400 -2,340 Descending Jacksonville Center
05:00PM 30.6047 -83.0978 139° Southeast 429 494 27,100 -1,200 Descending Jacksonville Center
05:01PM 30.5086 -83.0011 139° Southeast 441 507 27,000 -720 Descending Jacksonville Center
05:02PM 30.4147 -82.9022 138° Southeast 441 507 25,700 -1,020 Descending Jacksonville Center
05:03PM 30.3186 -82.8058 139° Southeast 447 514 25,000 -360 Descending Jacksonville Center
05:04PM 30.2267 -82.7100 138° Southeast 447 514 25,000  Level Jacksonville Center
05:05PM 30.1472 -82.6308 139° Southeast 441 507 25,000  Level Jacksonville Center
05:06PM 30.0531 -82.5375 139° Southeast 435 501 25,000  Level Jacksonville Center
05:07PM 29.9525 -82.4347 138° Southeast 435 501 25,000  Level Jacksonville Center
05:08PM 29.8686 -82.3608 143° Southeast 435 501 25,000  Level Jacksonville Center
05:09PM 29.7722 -82.2847 146° Southeast 430 495 25,000  Level Jacksonville Center
05:10PM 29.6717 -82.2067 146° Southeast 430 495 25,000 -180 Level Jacksonville Center
05:11PM 29.5669 -82.1453 153° Southeast 430 495 24,700 -1,200 Descending Jacksonville Center
05:12PM 29.4581 -82.0839 154° Southeast 425 489 22,700 -2,100 Descending Jacksonville Center
05:13PM 29.3533 -82.0300 156° South 425 489 20,500 -2,160 Descending Jacksonville Center
05:14PM 29.2486 -81.9764 156° South 420 483 18,400 -2,280 Descending Jacksonville Center
05:15PM 29.1522 -81.9200 153° Southeast 409 471 16,000 -2,100 Descending Jacksonville Center
05:16PM 29.0581 -81.9114 175° South 357 411 14,300 -1,680 Descending Jacksonville Center
05:17PM 28.9728 -81.9219 186° South 339 390 12,700 -1,500 Descending Jacksonville Center
05:18PM 28.9161 -81.8819 148° Southeast 270 311 11,300 -1,200 Descending Jacksonville Center
05:19PM 28.9111 -81.7967 94° East 217 250 10,400 -1,200 Descending Jacksonville Center
05:20PM 28.8772 -81.7308 120° Southeast 223 257 8,900 -1,680 Descending Jacksonville Center
05:21PM 28.8500 -81.6833 123° Southeast 238 274 7,900 -1,260 Descending Orlando TRACON
05:22PM 28.8167 -81.6333 127° Southeast 221 254 7,000 -480 Descending Orlando TRACON
05:23PM 28.8000 -81.5667 106° East 230 265 7,000 -360 Level Orlando TRACON
05:24PM 28.7833 -81.5000 106° East 222 255 6,300 -540 Descending Orlando TRACON
05:25PM 28.7667 -81.4333 106° East 216 249 6,000 -360 Descending Orlando TRACON
05:26PM 28.7500 -81.3833 111° Southeast 178 205 5,700 -540 Descending Orlando TRACON
05:27PM 28.7333 -81.3333 111° Southeast 161 185 5,000 -480 Descending Orlando TRACON
05:28PM 28.6833 -81.3333 180° South 164 189 4,800 -600 Descending Orlando TRACON
05:29PM 28.6333 -81.3333 180° South 171 197 3,700 -1,020 Descending Orlando TRACON
05:30PM 28.5833 -81.3333 180° South 170 196 2,800 -900 Descending Orlando TRACON
05:31PM 28.5500 -81.3333 180° South 165 190 1,900 -840 Descending Orlando TRACON
05:32PM 28.5167 -81.3333 180° South 136 157 1,300 -720 Descending Orlando TRACON
05:33PM 28.4667 -81.3333 180° South 129 148 500 -780 Descending Orlando TRACON
05:35PM 28.4294 -81.3090 180° South  Level Estimated
05:42PM 28.4294 -81.3090 24° Northeast  Level Estimated
05:43PM 28.4294 -81.3090 24° Northeast  Level Estimated
05:44PM 28.4294 -81.3090 24° Northeast  Level Estimated